createdAt,value
2023-07-12T00:00:13.696Z,53.14
2023-07-12T00:02:40.684Z,53.49
2023-07-12T00:05:07.599Z,53.26
2023-07-12T00:07:34.411Z,53.48
2023-07-12T00:10:01.278Z,53.27
2023-07-12T00:12:28.165Z,53.75
2023-07-12T00:14:55.058Z,53.53
2023-07-12T00:17:22.235Z,53.08
2023-07-12T00:19:49.280Z,53.42
2023-07-12T00:22:16.185Z,53.60
2023-07-12T00:24:43.135Z,53.67
2023-07-12T00:27:10.137Z,53.20
2023-07-12T00:29:37.065Z,53.69
2023-07-12T00:32:04.022Z,53.15
2023-07-12T00:34:30.853Z,53.59
2023-07-12T00:36:57.747Z,53.58
2023-07-12T00:39:24.645Z,53.15
2023-07-12T00:41:51.600Z,53.10
2023-07-12T00:44:18.441Z,53.67
2023-07-12T00:46:45.312Z,53.00
2023-07-12T00:49:12.275Z,52.76
2023-07-12T00:51:39.275Z,53.51
2023-07-12T00:54:06.206Z,53.54
2023-07-12T00:56:33.117Z,53.58
2023-07-12T00:58:59.990Z,53.44
2023-07-12T01:01:26.837Z,53.46
2023-07-12T01:03:53.978Z,53.20
2023-07-12T01:06:21.066Z,53.54
2023-07-12T01:08:47.889Z,53.56
2023-07-12T01:11:14.739Z,53.32
2023-07-12T01:13:41.633Z,52.99
2023-07-12T01:16:08.562Z,53.78
2023-07-12T01:18:35.576Z,53.85
2023-07-12T01:21:02.609Z,53.83
2023-07-12T01:23:29.582Z,53.35
2023-07-12T01:25:56.533Z,53.61
2023-07-12T01:28:23.724Z,53.11
2023-07-12T01:30:50.563Z,53.46
2023-07-12T01:33:17.380Z,53.03
2023-07-12T01:35:44.385Z,53.47
2023-07-12T01:38:11.317Z,53.63
2023-07-12T01:40:38.264Z,53.63
2023-07-12T01:43:05.278Z,52.91
2023-07-12T01:45:32.191Z,53.75
2023-07-12T01:47:59.116Z,53.45
2023-07-12T01:50:25.994Z,53.97
2023-07-12T01:52:52.864Z,53.39
2023-07-12T01:55:19.815Z,53.26
2023-07-12T01:57:46.650Z,53.95
2023-07-12T02:00:13.581Z,53.49
2023-07-12T02:02:40.597Z,53.90
2023-07-12T02:05:07.758Z,54.01
2023-07-12T02:07:34.584Z,53.88
2023-07-12T02:10:01.446Z,53.89
2023-07-12T02:12:28.386Z,53.65
2023-07-12T02:14:55.315Z,54.20
2023-07-12T02:17:22.187Z,53.59
2023-07-12T02:19:49.251Z,54.22
2023-07-12T02:22:16.153Z,53.64
2023-07-12T02:24:43.153Z,53.85
2023-07-12T02:27:10.183Z,53.74
2023-07-12T02:29:37.162Z,53.67
2023-07-12T02:32:04.231Z,53.67
2023-07-12T02:34:31.106Z,54.18
2023-07-12T02:36:58.137Z,53.96
2023-07-12T02:39:24.991Z,54.16
2023-07-12T02:41:51.812Z,54.57
2023-07-12T02:44:18.629Z,54.53
2023-07-12T02:46:45.524Z,54.67
2023-07-12T02:49:12.598Z,54.42
2023-07-12T02:51:39.558Z,54.59
2023-07-12T02:54:06.418Z,54.37
2023-07-12T02:56:33.306Z,54.05
2023-07-12T02:59:00.207Z,54.32
2023-07-12T03:01:27.343Z,54.53
2023-07-12T03:03:54.253Z,54.54
2023-07-12T03:06:21.115Z,54.28
2023-07-12T03:08:47.946Z,54.18
2023-07-12T03:11:14.850Z,54.77
2023-07-12T03:13:41.817Z,54.70
2023-07-12T03:16:08.795Z,54.67
2023-07-12T03:18:35.835Z,54.84
2023-07-12T03:21:02.858Z,54.56
2023-07-12T03:23:29.906Z,54.51
2023-07-12T03:25:56.814Z,54.70
2023-07-12T03:28:23.867Z,54.28
2023-07-12T03:30:50.836Z,54.26
2023-07-12T03:33:17.681Z,54.85
2023-07-12T03:35:44.720Z,54.75
2023-07-12T03:38:11.694Z,54.99
2023-07-12T03:40:38.510Z,54.85
2023-07-12T03:43:05.295Z,54.76
2023-07-12T03:45:32.133Z,54.27
2023-07-12T03:47:58.961Z,54.51
2023-07-12T03:50:25.863Z,54.74
2023-07-12T03:52:52.749Z,54.42
2023-07-12T03:55:19.604Z,54.45
2023-07-12T03:57:46.490Z,54.28
2023-07-12T04:00:13.297Z,54.91
2023-07-12T04:02:40.213Z,54.31
2023-07-12T04:05:07.056Z,54.42
2023-07-12T04:07:34.043Z,54.84
2023-07-12T04:10:00.989Z,54.63
2023-07-12T04:12:27.988Z,54.83
2023-07-12T04:14:54.883Z,54.25
2023-07-12T04:17:21.743Z,54.51
2023-07-12T04:19:48.611Z,54.55
2023-07-12T04:22:15.446Z,54.76
2023-07-12T04:24:42.313Z,54.20
2023-07-12T04:27:09.325Z,54.11
2023-07-12T04:29:36.179Z,54.00
2023-07-12T04:32:03.225Z,54.23
2023-07-12T04:36:59.987Z,53.96
2023-07-12T04:39:26.960Z,54.03
2023-07-12T04:41:56.853Z,53.86
2023-07-12T04:44:23.699Z,54.22
2023-07-12T04:46:50.649Z,54.43
2023-07-12T04:49:17.548Z,53.83
2023-07-12T04:51:44.542Z,54.10
2023-07-12T04:54:11.623Z,53.99
2023-07-12T04:56:38.518Z,53.99
2023-07-12T04:59:06.248Z,54.08
2023-07-12T05:01:33.247Z,53.81
2023-07-12T05:04:00.226Z,54.02
2023-07-12T05:06:27.161Z,54.40
2023-07-12T05:08:54.106Z,54.40
2023-07-12T05:11:21.119Z,53.93
2023-07-12T05:13:47.938Z,54.25
2023-07-12T05:16:15.067Z,54.22
2023-07-12T05:18:42.023Z,54.34
2023-07-12T05:21:09.335Z,54.51
2023-07-12T05:23:36.349Z,54.46
2023-07-12T05:26:03.307Z,54.33
2023-07-12T05:28:30.352Z,54.10
2023-07-12T05:30:57.353Z,53.96
2023-07-12T05:33:24.477Z,53.99
2023-07-12T05:35:51.502Z,54.43
2023-07-12T05:38:18.352Z,54.06
2023-07-12T05:40:45.361Z,54.14
2023-07-12T05:43:12.346Z,53.99
2023-07-12T05:45:39.351Z,54.13
2023-07-12T05:48:06.295Z,54.49
2023-07-12T05:50:33.103Z,53.85
2023-07-12T05:52:59.936Z,54.10
2023-07-12T05:55:26.848Z,54.20
2023-07-12T05:57:53.948Z,54.55
2023-07-12T06:00:20.860Z,53.94
2023-07-12T06:02:47.803Z,53.95
2023-07-12T06:05:14.767Z,54.81
2023-07-12T06:07:41.765Z,54.83
2023-07-12T06:10:08.753Z,54.72
2023-07-12T06:12:35.559Z,54.17
2023-07-12T06:15:02.417Z,54.73
2023-07-12T06:17:29.376Z,54.12
2023-07-12T06:19:56.272Z,54.44
2023-07-12T06:22:24.205Z,54.03
2023-07-12T06:24:51.723Z,54.50
2023-07-12T06:27:18.587Z,54.34
2023-07-12T06:29:45.676Z,54.73
2023-07-12T06:32:12.674Z,54.65
2023-07-12T06:34:39.640Z,54.23
2023-07-12T06:37:06.466Z,54.73
2023-07-12T06:39:33.319Z,54.60
2023-07-12T06:42:00.137Z,54.69
2023-07-12T06:44:27.041Z,54.91
2023-07-12T06:46:53.987Z,54.58
2023-07-12T06:49:20.965Z,54.14
2023-07-12T06:51:47.809Z,54.69
2023-07-12T06:54:14.923Z,54.77
2023-07-12T06:56:41.832Z,54.40
2023-07-12T06:59:08.858Z,54.70
2023-07-12T07:01:35.828Z,54.97
2023-07-12T07:04:02.786Z,54.80
2023-07-12T07:06:29.688Z,54.55
2023-07-12T07:08:59.617Z,54.89
2023-07-12T07:11:26.500Z,54.80
2023-07-12T07:13:53.544Z,54.42
2023-07-12T07:16:20.489Z,54.60
2023-07-12T07:18:47.564Z,54.96
2023-07-12T07:21:14.720Z,55.03
2023-07-12T07:23:41.614Z,54.51
2023-07-12T07:26:11.093Z,55.08
2023-07-12T07:28:38.571Z,54.87
2023-07-12T07:31:05.526Z,54.94
2023-07-12T07:33:32.406Z,54.96
2023-07-12T07:35:59.222Z,54.98
2023-07-12T07:38:26.119Z,54.83
2023-07-12T07:40:53.066Z,54.45
2023-07-12T07:43:19.928Z,54.74
2023-07-12T07:45:46.764Z,55.11
2023-07-12T07:48:13.702Z,54.90
2023-07-12T07:50:40.519Z,55.24
2023-07-12T07:53:07.365Z,55.03
2023-07-12T07:55:34.190Z,55.10
2023-07-12T07:58:01.125Z,54.78
2023-07-12T08:00:27.978Z,54.90
2023-07-12T08:02:55.078Z,54.81
2023-07-12T08:05:21.947Z,54.57
2023-07-12T08:07:48.785Z,55.01
2023-07-12T08:10:15.945Z,54.97
2023-07-12T08:12:42.876Z,54.76
2023-07-12T08:15:09.859Z,54.49
2023-07-12T08:17:36.850Z,54.51
2023-07-12T08:20:03.825Z,54.53
2023-07-12T08:22:30.799Z,54.87
2023-07-12T08:24:57.746Z,54.96
2023-07-12T08:27:24.735Z,54.53
2023-07-12T08:29:51.688Z,54.41
2023-07-12T08:32:18.498Z,54.94
2023-07-12T08:34:45.375Z,55.02
2023-07-12T08:37:12.280Z,55.11
2023-07-12T08:39:39.283Z,55.23
2023-07-12T08:42:06.340Z,55.22
2023-07-12T08:44:33.251Z,55.04
2023-07-12T08:47:00.066Z,55.33
2023-07-12T08:49:26.955Z,55.25
2023-07-12T08:51:53.875Z,54.89
2023-07-12T08:54:20.854Z,55.30
2023-07-12T08:56:47.709Z,55.25
2023-07-12T08:59:14.857Z,55.10
2023-07-12T09:01:41.848Z,55.30
2023-07-12T09:04:08.710Z,54.84
2023-07-12T09:06:35.555Z,55.32
2023-07-12T09:09:02.674Z,55.41
2023-07-12T09:11:29.605Z,55.51
2023-07-12T09:13:56.581Z,55.49
2023-07-12T09:16:23.613Z,55.34
2023-07-12T09:18:50.534Z,55.10
2023-07-12T09:21:17.405Z,54.92
2023-07-12T09:23:44.480Z,54.92
2023-07-12T09:26:11.405Z,55.34
2023-07-12T09:28:38.246Z,55.50
2023-07-12T09:31:05.093Z,55.43
2023-07-12T09:33:32.064Z,55.46
2023-07-12T09:35:58.963Z,55.46
2023-07-12T09:38:26.007Z,55.21
2023-07-12T09:40:53.034Z,55.39
2023-07-12T09:43:19.931Z,54.91
2023-07-12T09:45:59.581Z,55.42
2023-07-12T09:48:33.706Z,55.33
2023-07-12T09:51:00.596Z,55.18
2023-07-12T09:53:27.415Z,55.67
2023-07-12T09:55:54.455Z,55.80
2023-07-12T09:58:21.303Z,55.63
2023-07-12T10:00:48.157Z,55.52
2023-07-12T10:03:15.087Z,55.20
2023-07-12T10:05:42.040Z,55.70
2023-07-12T10:08:08.972Z,55.19
2023-07-12T10:10:37.436Z,55.72
2023-07-12T10:13:04.471Z,55.71
2023-07-12T10:15:31.341Z,55.57
2023-07-12T10:17:58.425Z,55.76
2023-07-12T10:20:25.541Z,55.82
2023-07-12T10:22:52.523Z,55.63
2023-07-12T10:25:19.405Z,55.91
2023-07-12T10:27:46.504Z,55.67
2023-07-12T10:30:13.434Z,55.56
2023-07-12T10:32:40.422Z,56.01
2023-07-12T10:35:07.355Z,55.84
2023-07-12T10:37:34.275Z,55.85
2023-07-12T10:40:01.371Z,55.79
2023-07-12T10:42:28.218Z,55.63
2023-07-12T10:44:55.146Z,55.83
2023-07-12T10:47:22.021Z,55.87
2023-07-12T10:49:48.939Z,56.11
2023-07-12T10:52:15.853Z,55.92
2023-07-12T10:54:42.848Z,55.95
2023-07-12T10:57:09.769Z,56.03
2023-07-12T10:59:36.590Z,56.19
2023-07-12T11:02:03.489Z,56.17
2023-07-12T11:04:30.437Z,56.18
2023-07-12T11:06:57.406Z,56.10
2023-07-12T11:09:24.388Z,56.28
2023-07-12T11:11:51.206Z,56.00
2023-07-12T11:14:18.077Z,55.99
2023-07-12T11:16:45.035Z,55.85
2023-07-12T11:19:11.964Z,56.11
2023-07-12T11:21:38.907Z,56.42
2023-07-12T11:24:05.821Z,56.45
2023-07-12T11:26:35.700Z,56.19
2023-07-12T11:29:02.605Z,56.06
2023-07-12T11:31:29.642Z,56.09
2023-07-12T11:33:56.540Z,56.38
2023-07-12T11:36:23.421Z,56.39
2023-07-12T11:38:50.316Z,56.75
2023-07-12T11:41:17.264Z,56.17
2023-07-12T11:43:44.378Z,56.38
2023-07-12T11:46:11.345Z,56.45
2023-07-12T11:48:38.202Z,56.68
2023-07-12T11:51:05.125Z,56.91
2023-07-12T11:53:32.188Z,56.51
2023-07-12T11:55:59.181Z,56.91
2023-07-12T11:58:26.139Z,57.09
2023-07-12T12:00:53.119Z,56.89
2023-07-12T12:03:20.078Z,56.84
2023-07-12T12:05:47.101Z,57.01
2023-07-12T12:08:17.217Z,57.01
2023-07-12T12:10:44.198Z,56.78
2023-07-12T12:13:11.125Z,57.21
2023-07-12T12:15:38.405Z,57.01
2023-07-12T12:18:05.482Z,57.12
2023-07-12T12:20:32.802Z,57.37
2023-07-12T12:23:00.316Z,57.39
2023-07-12T12:25:27.399Z,56.81
2023-07-12T12:27:54.268Z,57.40
2023-07-12T12:30:21.297Z,57.24
2023-07-12T12:32:48.271Z,56.71
2023-07-12T12:35:15.108Z,57.05
2023-07-12T12:37:42.009Z,57.00
2023-07-12T12:40:08.848Z,57.17
2023-07-12T12:42:38.673Z,57.03
2023-07-12T12:45:05.482Z,57.05
2023-07-12T12:47:32.466Z,57.16
2023-07-12T12:55:04.298Z,56.90
2023-07-12T13:08:44.583Z,56.66
2023-07-12T13:18:19.170Z,56.86
2023-07-12T13:20:45.560Z,56.85
2023-07-12T13:25:49.334Z,56.73
2023-07-12T13:28:16.206Z,56.25
2023-07-12T13:30:43.163Z,56.23
2023-07-12T13:33:10.193Z,56.52
2023-07-12T13:40:38.717Z,56.62
2023-07-12T13:43:10.807Z,56.04
2023-07-12T13:45:54.279Z,56.54
2023-07-12T13:48:21.270Z,56.23
2023-07-12T13:50:48.102Z,56.17
2023-07-12T13:53:15.079Z,56.06
2023-07-12T13:55:44.969Z,55.84
2023-07-12T13:58:14.833Z,56.01
2023-07-12T14:01:09.239Z,55.93
2023-07-12T14:03:31.765Z,55.59
2023-07-12T14:06:01.166Z,55.78
2023-07-12T14:10:57.849Z,55.74
2023-07-12T14:13:27.709Z,55.54
2023-07-12T14:15:54.659Z,55.61
2023-07-12T14:18:21.532Z,55.57
2023-07-12T14:20:48.447Z,55.50
2023-07-12T14:23:15.404Z,55.16
2023-07-12T14:25:42.370Z,55.43
2023-07-12T14:28:11.543Z,55.06
2023-07-12T14:33:10.169Z,55.59
2023-07-12T14:35:37.111Z,55.34
2023-07-12T14:38:04.109Z,55.55
2023-07-12T14:40:30.943Z,55.03
2023-07-12T14:42:57.935Z,55.30
2023-07-12T14:45:24.750Z,54.98
2023-07-12T14:47:51.625Z,54.92
2023-07-12T14:50:18.534Z,54.90
2023-07-12T14:52:45.543Z,54.66
2023-07-12T14:55:12.568Z,54.96
2023-07-12T14:58:08.659Z,55.36
2023-07-12T15:00:26.314Z,55.31
2023-07-12T15:02:53.300Z,55.22
2023-07-12T15:05:20.276Z,55.23
2023-07-12T15:07:47.240Z,54.52
2023-07-12T15:10:14.206Z,54.75
2023-07-12T15:12:41.195Z,54.86
2023-07-12T15:15:08.043Z,55.01
2023-07-12T15:17:34.900Z,54.88
2023-07-12T15:20:01.892Z,54.52
2023-07-12T15:22:28.815Z,54.94
2023-07-12T15:24:57.042Z,54.71
2023-07-12T15:27:23.882Z,54.43
2023-07-12T15:29:50.947Z,54.72
2023-07-12T15:32:17.901Z,54.36
2023-07-12T15:34:44.916Z,54.33
2023-07-12T15:37:11.802Z,54.49
2023-07-12T15:39:38.646Z,54.18
2023-07-12T15:42:05.560Z,54.12
2023-07-12T15:44:32.488Z,54.22
2023-07-12T15:46:59.392Z,54.27
2023-07-12T15:49:26.472Z,54.44
2023-07-12T15:51:53.313Z,54.21
2023-07-12T15:54:20.243Z,54.63
2023-07-12T15:56:47.283Z,54.11
2023-07-12T15:59:14.362Z,54.53
2023-07-12T16:01:41.177Z,54.53
2023-07-12T16:04:08.024Z,54.21
2023-07-12T16:06:34.980Z,53.90
2023-07-12T16:09:01.892Z,53.96
2023-07-12T16:11:28.746Z,54.18
2023-07-12T16:14:00.796Z,54.63
2023-07-12T16:16:28.816Z,54.30
2023-07-12T16:18:55.873Z,54.44
2023-07-12T16:21:22.735Z,54.45
2023-07-12T16:23:49.632Z,54.05
2023-07-12T16:26:16.569Z,53.71
2023-07-12T16:28:43.528Z,53.65
2023-07-12T16:31:10.470Z,53.56
2023-07-12T16:33:37.356Z,53.98
2023-07-12T16:36:04.394Z,53.56
2023-07-12T16:38:31.245Z,53.44
2023-07-12T16:40:58.190Z,53.55
2023-07-12T16:43:25.324Z,54.10
2023-07-12T16:45:52.150Z,53.97
2023-07-12T16:48:19.035Z,53.37
2023-07-12T16:50:45.968Z,53.53
2023-07-12T16:53:12.920Z,53.73
2023-07-12T16:55:39.768Z,53.38
2023-07-12T16:58:06.885Z,54.04
2023-07-12T17:00:33.830Z,53.81
2023-07-12T17:03:00.800Z,53.51
2023-07-12T17:05:27.881Z,53.34
2023-07-12T17:07:54.863Z,53.35
2023-07-12T17:10:21.972Z,53.79
2023-07-12T17:12:48.856Z,53.72
2023-07-12T17:15:15.756Z,53.33
2023-07-12T17:17:42.853Z,53.76
2023-07-12T17:20:09.670Z,53.36
2023-07-12T17:22:36.890Z,53.75
2023-07-12T17:25:04.026Z,53.75
2023-07-12T17:27:30.864Z,53.75
2023-07-12T17:29:57.734Z,53.29
2023-07-12T17:32:24.754Z,53.21
2023-07-12T17:34:51.859Z,53.25
2023-07-12T17:37:18.707Z,53.83
2023-07-12T17:39:52.211Z,53.63
2023-07-12T17:42:26.234Z,53.67
2023-07-12T17:44:53.041Z,53.72
2023-07-12T17:47:19.896Z,53.87
2023-07-12T17:49:46.695Z,53.76
2023-07-12T17:52:13.668Z,53.61
2023-07-12T17:54:40.520Z,53.25
2023-07-12T17:57:07.388Z,53.78
2023-07-12T17:59:37.240Z,53.93
2023-07-12T18:02:04.223Z,53.71
2023-07-12T18:04:31.210Z,53.31
2023-07-12T18:06:58.053Z,53.16
2023-07-12T18:09:25.155Z,53.27
2023-07-12T18:11:52.009Z,53.61
2023-07-12T18:14:18.952Z,53.69
2023-07-12T18:16:46.041Z,53.71
2023-07-12T18:19:12.972Z,53.23
2023-07-12T18:21:39.853Z,53.72
2023-07-12T18:24:06.883Z,53.66
2023-07-12T18:26:33.896Z,53.77
2023-07-12T18:29:00.717Z,53.72
2023-07-12T18:31:27.626Z,53.69
2023-07-12T18:33:54.644Z,53.54
2023-07-12T18:36:21.712Z,53.57
2023-07-12T18:38:48.517Z,53.30
2023-07-12T18:41:15.401Z,53.06
2023-07-12T18:43:42.193Z,53.64
2023-07-12T18:46:09.308Z,53.37
2023-07-12T18:48:36.574Z,52.84
2023-07-12T18:51:03.396Z,53.58
2023-07-12T18:53:30.203Z,52.84
2023-07-12T18:56:00.056Z,53.59
2023-07-12T18:58:27.105Z,52.87
2023-07-12T19:00:54.007Z,52.98
2023-07-12T19:03:20.884Z,53.26
2023-07-12T19:05:47.999Z,53.47
2023-07-12T19:08:14.973Z,53.04
2023-07-12T19:10:41.956Z,53.57
2023-07-12T19:13:08.773Z,53.46
2023-07-12T19:15:35.856Z,53.23
2023-07-12T19:18:02.911Z,53.48
2023-07-12T19:20:29.823Z,53.02
2023-07-12T19:22:56.796Z,53.04
2023-07-12T19:25:23.703Z,53.14
2023-07-12T19:27:50.567Z,52.72
2023-07-12T19:30:17.660Z,52.98
2023-07-12T19:32:44.701Z,52.73
2023-07-12T19:35:11.846Z,53.12
2023-07-12T19:37:38.698Z,53.29
2023-07-12T19:40:05.788Z,52.80
2023-07-12T19:42:32.765Z,52.73
2023-07-12T19:44:59.657Z,53.05
2023-07-12T19:47:26.497Z,53.11
2023-07-12T19:49:53.399Z,53.05
2023-07-12T19:52:20.234Z,53.23
2023-07-12T19:54:47.145Z,53.18
2023-07-12T19:57:14.092Z,53.05
2023-07-12T19:59:40.970Z,53.06
2023-07-12T20:02:08.019Z,52.57
2023-07-12T20:04:34.975Z,52.70
2023-07-12T20:07:01.994Z,52.62
2023-07-12T20:09:29.093Z,53.05
2023-07-12T20:11:56.048Z,52.69
2023-07-12T20:14:23.321Z,52.73
2023-07-12T20:16:50.234Z,53.24
2023-07-12T20:19:17.270Z,52.46
2023-07-12T20:21:44.202Z,53.03
2023-07-12T20:24:11.091Z,53.09
2023-07-12T20:26:38.131Z,53.05
2023-07-12T20:29:05.110Z,52.66
2023-07-12T20:31:32.137Z,53.12
2023-07-12T20:33:59.052Z,53.16
2023-07-12T20:36:25.954Z,52.75
2023-07-12T20:38:52.977Z,52.67
2023-07-12T20:41:23.113Z,52.61
2023-07-12T20:43:49.980Z,53.37
2023-07-12T20:46:17.179Z,53.00
2023-07-12T20:48:44.259Z,53.12
2023-07-12T20:51:11.082Z,52.67
2023-07-12T20:53:38.223Z,53.11
2023-07-12T20:56:05.149Z,52.82
2023-07-12T20:58:32.159Z,52.67
2023-07-12T21:00:59.091Z,53.08
2023-07-12T21:03:25.940Z,53.04
2023-07-12T21:05:53.033Z,53.16
2023-07-12T21:08:19.903Z,53.20
2023-07-12T21:10:49.857Z,53.21
2023-07-12T21:13:16.715Z,53.38
2023-07-12T21:15:43.628Z,52.80
2023-07-12T21:18:10.554Z,53.31
2023-07-12T21:20:37.389Z,53.48
2023-07-12T21:23:04.292Z,52.85
2023-07-12T21:25:31.210Z,53.17
2023-07-12T21:27:58.142Z,53.39
2023-07-12T21:30:25.142Z,53.27
2023-07-12T21:32:52.161Z,53.49
2023-07-12T21:35:19.083Z,52.79
2023-07-12T21:37:46.063Z,53.27
2023-07-12T21:40:13.101Z,52.98
2023-07-12T21:42:39.998Z,52.99
2023-07-12T21:45:06.982Z,53.42
2023-07-12T21:47:33.956Z,53.54
2023-07-12T21:50:02.670Z,53.50
2023-07-12T21:52:30.095Z,53.04
2023-07-12T21:54:57.112Z,53.50
2023-07-12T21:57:24.037Z,53.70
2023-07-12T21:59:50.934Z,53.76
2023-07-12T22:02:17.857Z,53.17
2023-07-12T22:04:44.884Z,53.47
2023-07-12T22:07:11.783Z,53.60
2023-07-12T22:09:38.837Z,53.25
2023-07-12T22:12:05.786Z,53.46
2023-07-12T22:14:32.771Z,53.05
2023-07-12T22:17:02.681Z,52.88
2023-07-12T22:19:30.053Z,53.46
2023-07-12T22:21:56.939Z,53.58
2023-07-12T22:24:24.085Z,53.43
2023-07-12T22:26:50.942Z,53.14
2023-07-12T22:29:18.047Z,52.98
2023-07-12T22:31:45.012Z,52.83
2023-07-12T22:34:11.925Z,52.77
2023-07-12T22:36:38.900Z,53.08
2023-07-12T22:39:05.909Z,52.67
2023-07-12T22:41:32.819Z,52.59
2023-07-12T22:43:59.710Z,52.89
2023-07-12T22:46:26.801Z,52.25
2023-07-12T22:48:53.715Z,52.23
2023-07-12T22:51:20.585Z,52.15
2023-07-12T22:53:47.685Z,52.76
2023-07-12T22:56:14.628Z,52.59
2023-07-12T22:58:41.529Z,52.66
2023-07-12T23:01:08.556Z,52.48
2023-07-12T23:03:35.596Z,53.06
2023-07-12T23:06:02.807Z,52.88
2023-07-12T23:08:29.963Z,52.94
2023-07-12T23:10:56.904Z,52.39
2023-07-12T23:13:23.881Z,52.83
2023-07-12T23:15:50.792Z,52.24
2023-07-12T23:18:17.761Z,52.34
2023-07-12T23:20:44.629Z,52.66
2023-07-12T23:23:11.476Z,52.45
2023-07-12T23:25:38.490Z,52.31
2023-07-12T23:28:05.351Z,52.83
2023-07-12T23:30:32.229Z,52.22
2023-07-12T23:32:59.276Z,52.44
2023-07-12T23:35:26.155Z,52.19
2023-07-12T23:37:53.051Z,52.82
2023-07-12T23:40:20.049Z,52.36
2023-07-12T23:42:46.942Z,52.26
2023-07-12T23:45:13.947Z,52.00
2023-07-12T23:47:40.856Z,52.09
2023-07-12T23:50:07.877Z,52.27
2023-07-12T23:52:34.879Z,52.54
2023-07-12T23:55:01.709Z,52.47
2023-07-12T23:57:28.734Z,52.48
2023-07-12T23:59:55.545Z,51.94
